Terminal Aerodrome Forecast
Issued by NWS

Home | Current Version | Previous Version | Text Only | Print | Product List | Glossary Off
Versions: 1 2 3 4 5 6 7 8 9 10 11 12 13 14 15

839
FTUS43 KICT 290520
TAFSLN
TAF
KSLN 290520Z 2906/3006 03015KT P6SM VCSH OVC008
     FM290800 02015G22KT 5SM SHRA OVC007
     FM291400 02018G25KT 5SM -SHRA OVC004=

USA.gov is the U.S. government's official web portal to all federal, state and local government web resources and services.